Time;durP1;ratioP1;P1;durP2;ratioP2;P2;SDS_P1;SDS_P2;PMS_P1;PMS_P2;Temp;Humidity;BMP_temperature;BMP_pressure;BME280_temperature;BME280_humidity;BME280_pressure;Samples;Min_cycle;Max_cycle;Signal;HPM_P1;HPM_P2
2022/03/20 00:00:09;;;;;;;10.40;4.68;;;6.40;74.20;;;;;;4937478;29;20058;-65
2022/03/20 00:02:35;;;;;;;9.73;4.90;;;6.40;74.30;;;;;;4937584;29;20055;-65
2022/03/20 00:05:02;;;;;;;7.32;4.15;;;6.30;74.40;;;;;;4936331;29;20048;-65
2022/03/20 00:07:29;;;;;;;7.63;4.15;;;6.40;74.50;;;;;;4937411;29;20055;-65
2022/03/20 00:09:55;;;;;;;11.02;4.80;;;6.30;74.60;;;;;;4936027;29;20483;-65
2022/03/20 00:12:20;;;;;;;6.15;4.20;;;6.30;74.60;;;;;;4918342;29;20147;-66
2022/03/20 00:14:46;;;;;;;7.38;4.60;;;6.30;74.70;;;;;;4919139;29;20040;-65
2022/03/20 00:17:13;;;;;;;8.32;4.45;;;6.40;74.60;;;;;;4919762;29;20048;-65
2022/03/20 00:19:39;;;;;;;10.00;5.18;;;6.30;74.80;;;;;;4925312;29;20047;-66
2022/03/20 00:22:06;;;;;;;6.63;4.07;;;6.30;74.80;;;;;;4937490;29;20078;-66
2022/03/20 00:24:32;;;;;;;10.40;4.97;;;6.30;74.80;;;;;;4930070;29;20044;-64
2022/03/20 00:26:58;;;;;;;10.93;4.85;;;6.30;74.90;;;;;;4918135;29;20107;-65
2022/03/20 00:29:27;;;;;;;7.47;4.10;;;6.20;75.00;;;;;;4938255;29;20071;-65
2022/03/20 00:31:53;;;;;;;10.25;4.22;;;6.20;75.00;;;;;;4935624;29;20203;-65
2022/03/20 00:34:19;;;;;;;13.07;5.13;;;6.20;75.00;;;;;;4938840;29;20130;-65
2022/03/20 00:36:45;;;;;;;8.77;4.50;;;6.10;75.10;;;;;;4936960;29;20098;-64
2022/03/20 00:39:11;;;;;;;8.55;4.35;;;6.20;75.20;;;;;;4935400;29;20405;-65
2022/03/20 00:41:37;;;;;;;8.93;4.35;;;6.10;75.30;;;;;;4923864;29;20042;-65
2022/03/20 00:44:03;;;;;;;11.77;5.03;;;6.10;75.50;;;;;;4921961;29;20440;-66
2022/03/20 00:46:29;;;;;;;6.97;4.30;;;6.10;75.40;;;;;;4931703;29;20102;-65
2022/03/20 00:48:54;;;;;;;9.05;4.95;;;6.10;75.40;;;;;;4934892;29;20048;-65
2022/03/20 00:51:20;;;;;;;10.02;4.10;;;6.10;75.60;;;;;;4926510;29;20060;-65
2022/03/20 00:53:46;;;;;;;11.82;4.88;;;6.10;75.50;;;;;;4920027;29;20063;-65
2022/03/20 00:56:15;;;;;;;9.50;4.97;;;6.10;75.50;;;;;;4934700;29;20051;-65
2022/03/20 00:58:41;;;;;;;7.60;4.53;;;6.10;75.60;;;;;;4935093;29;20080;-65
2022/03/20 01:01:10;;;;;;;9.55;4.32;;;6.00;75.90;;;;;;4930356;29;20044;-66
2022/03/20 01:03:36;;;;;;;8.23;5.00;;;6.10;75.80;;;;;;4915583;29;20391;-64
2022/03/20 01:06:02;;;;;;;9.25;4.47;;;6.00;76.00;;;;;;4906731;29;20510;-65
2022/03/20 01:08:27;;;;;;;7.97;4.78;;;6.00;75.90;;;;;;4899622;29;20064;-66
2022/03/20 01:10:53;;;;;;;8.23;4.47;;;6.00;75.90;;;;;;4921046;29;20047;-65
2022/03/20 01:13:18;;;;;;;12.85;4.75;;;6.00;75.90;;;;;;4934929;29;20048;-66
2022/03/20 01:15:45;;;;;;;7.25;4.70;;;6.00;75.80;;;;;;4928166;29;20059;-65
2022/03/20 01:18:10;;;;;;;10.98;5.45;;;5.90;75.90;;;;;;4933937;29;20145;-66
2022/03/20 01:20:36;;;;;;;11.27;5.07;;;5.90;75.90;;;;;;4934153;29;20036;-66
2022/03/20 01:23:02;;;;;;;7.18;4.53;;;5.90;75.90;;;;;;4917798;29;20090;-66
2022/03/20 01:25:30;;;;;;;9.98;4.82;;;5.80;75.80;;;;;;4915219;29;20063;-66
2022/03/20 01:27:55;;;;;;;9.63;4.80;;;5.80;75.90;;;;;;4915774;29;20418;-65
2022/03/20 01:30:21;;;;;;;7.97;4.93;;;5.70;76.10;;;;;;4915199;29;20044;-65
2022/03/20 01:32:47;;;;;;;9.02;5.03;;;5.70;76.10;;;;;;4929122;29;20048;-64
2022/03/20 01:35:13;;;;;;;10.30;4.88;;;5.70;76.20;;;;;;4934746;29;20094;-65
2022/03/20 01:37:41;;;;;;;9.40;4.78;;;5.70;76.20;;;;;;4916681;29;20093;-65
2022/03/20 01:40:07;;;;;;;6.68;4.63;;;5.70;76.20;;;;;;4933878;29;20048;-65
2022/03/20 01:42:33;;;;;;;8.88;5.30;;;5.60;76.30;;;;;;4919650;29;20134;-65
2022/03/20 01:44:59;;;;;;;8.05;5.15;;;5.60;76.40;;;;;;4914809;29;20095;-64
2022/03/20 01:47:24;;;;;;;8.48;5.05;;;5.60;76.40;;;;;;4916531;29;20047;-65
2022/03/20 01:49:50;;;;;;;9.88;5.32;;;5.60;76.70;;;;;;4914860;29;20036;-64
2022/03/20 01:52:24;;;;;;;10.52;4.82;;;5.60;76.60;;;;;;4925590;29;20429;-64
2022/03/20 01:54:50;;;;;;;12.13;4.75;;;5.50;76.80;;;;;;4914708;29;20079;-66
2022/03/20 01:57:20;;;;;;;14.00;6.80;;;5.50;76.70;;;;;;4920660;29;20036;-65
2022/03/20 01:59:47;;;;;;;10.30;5.18;;;5.50;76.70;;;;;;4915432;29;20067;-66
2022/03/20 02:02:13;;;;;;;11.27;5.88;;;5.40;76.70;;;;;;4932870;29;20071;-64
2022/03/20 02:04:40;;;;;;;13.27;5.72;;;5.40;76.80;;;;;;4932092;29;20052;-64
2022/03/20 02:07:07;;;;;;;9.43;5.80;;;5.40;76.90;;;;;;4928950;29;20067;-65
2022/03/20 02:09:36;;;;;;;15.98;7.15;;;5.30;77.00;;;;;;4896906;29;20051;-64
2022/03/20 02:12:02;;;;;;;9.07;5.72;;;5.30;77.10;;;;;;4916962;29;20149;-65
2022/03/20 02:14:28;;;;;;;9.45;5.95;;;5.30;77.10;;;;;;4933253;29;20052;-65
2022/03/20 02:16:55;;;;;;;10.07;5.55;;;5.30;77.20;;;;;;4924358;29;20552;-66
2022/03/20 02:19:21;;;;;;;10.15;5.53;;;5.30;77.20;;;;;;4908358;29;20054;-65
2022/03/20 02:21:48;;;;;;;12.98;6.57;;;5.30;77.30;;;;;;4916859;29;20044;-65
2022/03/20 02:24:41;;;;;;;9.85;5.75;;;5.30;77.40;;;;;;4901189;29;20055;-65
2022/03/20 02:27:11;;;;;;;11.25;6.60;;;5.30;77.30;;;;;;4933612;29;20047;-65
2022/03/20 02:29:38;;;;;;;9.20;5.80;;;5.20;77.30;;;;;;4932972;29;20444;-65
2022/03/20 02:32:04;;;;;;;14.30;6.85;;;5.20;77.50;;;;;;4932874;29;20057;-65
2022/03/20 02:34:31;;;;;;;14.63;6.78;;;5.20;77.40;;;;;;4933247;29;20051;-65
2022/03/20 02:36:58;;;;;;;12.77;7.15;;;5.20;77.40;;;;;;4932982;29;20054;-65
2022/03/20 02:39:24;;;;;;;11.57;6.72;;;5.20;77.30;;;;;;4915017;29;20063;-65
2022/03/20 02:41:51;;;;;;;12.40;6.82;;;5.10;77.20;;;;;;4922521;29;20471;-65
2022/03/20 02:44:17;;;;;;;8.98;7.18;;;5.10;77.30;;;;;;4927820;29;20051;-65
2022/03/20 02:46:43;;;;;;;13.25;8.35;;;5.10;77.40;;;;;;4922212;29;20513;-65
2022/03/20 02:49:09;;;;;;;13.02;7.45;;;5.10;77.50;;;;;;4913882;29;20051;-65
2022/03/20 02:51:36;;;;;;;12.65;7.03;;;5.20;77.60;;;;;;4914588;29;20060;-65
2022/03/20 02:54:05;;;;;;;14.65;7.80;;;5.10;77.60;;;;;;4913679;29;20522;-66
2022/03/20 02:56:32;;;;;;;15.02;7.13;;;5.20;77.60;;;;;;4913680;29;20236;-65
2022/03/20 02:58:58;;;;;;;11.93;7.53;;;5.10;77.70;;;;;;4926016;29;20378;-65
2022/03/20 03:01:24;;;;;;;14.15;7.25;;;5.10;77.50;;;;;;4932144;29;20087;-65
2022/03/20 03:03:50;;;;;;;13.75;7.10;;;5.10;77.50;;;;;;4930608;29;20055;-65
2022/03/20 03:06:16;;;;;;;12.43;7.47;;;5.00;77.40;;;;;;4923489;29;20047;-65
2022/03/20 03:11:25;;;;;;;13.13;7.65;;;5.00;77.60;;;;;;4913074;29;20052;-65
2022/03/20 03:13:51;;;;;;;12.55;7.32;;;4.90;77.50;;;;;;4922403;29;20156;-65
2022/03/20 03:16:17;;;;;;;10.75;6.82;;;4.90;77.50;;;;;;4931465;29;20047;-65
2022/03/20 03:18:44;;;;;;;15.43;7.93;;;4.90;77.60;;;;;;4915594;29;20064;-66
2022/03/20 03:21:15;;;;;;;14.48;7.47;;;4.90;77.60;;;;;;4912299;29;20054;-65
2022/03/20 03:23:41;;;;;;;15.00;7.60;;;4.90;77.60;;;;;;4927657;29;20058;-65
2022/03/20 03:26:07;;;;;;;14.85;7.63;;;4.90;77.70;;;;;;4932071;29;20070;-65
2022/03/20 03:28:34;;;;;;;18.42;9.23;;;4.90;77.60;;;;;;4920096;29;20446;-65
2022/03/20 03:31:01;;;;;;;15.55;7.57;;;4.90;77.60;;;;;;4913418;29;20044;-66
2022/03/20 03:33:28;;;;;;;15.48;7.75;;;4.80;77.50;;;;;;4924037;29;20047;-65
2022/03/20 03:35:54;;;;;;;13.52;7.88;;;4.80;77.50;;;;;;4926855;29;20041;-66
2022/03/20 03:38:26;;;;;;;13.38;7.20;;;4.80;77.50;;;;;;4921655;29;20051;-65
2022/03/20 03:40:52;;;;;;;13.27;8.07;;;4.80;77.50;;;;;;4932134;29;20047;-65
2022/03/20 03:43:18;;;;;;;19.17;8.68;;;4.70;77.60;;;;;;4924631;29;20513;-65
2022/03/20 03:45:45;;;;;;;13.25;7.68;;;4.60;77.60;;;;;;4915995;29;20485;-65
2022/03/20 03:48:12;;;;;;;14.50;8.23;;;4.60;77.60;;;;;;4930819;29;20051;-65
2022/03/20 03:50:39;;;;;;;13.02;7.93;;;4.60;77.60;;;;;;4915409;29;20155;-65
2022/03/20 03:53:08;;;;;;;14.30;8.60;;;4.60;77.60;;;;;;4931632;29;20051;-65
2022/03/20 03:55:33;;;;;;;14.55;8.13;;;4.60;77.50;;;;;;4931185;29;20512;-64
2022/03/20 03:58:02;;;;;;;14.60;7.40;;;4.60;77.60;;;;;;4911543;29;20040;-65
2022/03/20 04:00:29;;;;;;;15.55;7.80;;;4.60;77.50;;;;;;4913115;29;20416;-64
2022/03/20 04:02:55;;;;;;;14.30;8.18;;;4.60;77.60;;;;;;4915324;29;20056;-66
2022/03/20 04:05:21;;;;;;;17.88;8.27;;;4.50;77.60;;;;;;4931611;29;20054;-66
2022/03/20 04:07:47;;;;;;;16.60;8.13;;;4.50;77.50;;;;;;4932070;29;20040;-65
2022/03/20 04:10:14;;;;;;;14.73;8.68;;;4.50;77.60;;;;;;4913306;29;20123;-64
2022/03/20 04:12:43;;;;;;;13.85;7.50;;;4.50;77.60;;;;;;4913213;29;20497;-65
2022/03/20 04:15:14;;;;;;;11.18;8.18;;;4.50;77.60;;;;;;4934864;29;20048;-65
2022/03/20 04:17:40;;;;;;;18.83;8.80;;;4.50;77.50;;;;;;4917361;29;20144;-65
2022/03/20 04:20:10;;;;;;;16.58;9.30;;;4.50;77.60;;;;;;4934532;29;20504;-65
2022/03/20 04:22:38;;;;;;;13.82;8.88;;;4.40;77.70;;;;;;4935474;29;20091;-65
2022/03/20 04:25:05;;;;;;;15.35;8.70;;;4.40;77.70;;;;;;4927931;29;20035;-65
2022/03/20 04:27:31;;;;;;;17.08;9.38;;;4.40;77.60;;;;;;4935583;29;20043;-65
2022/03/20 04:29:57;;;;;;;17.33;8.80;;;4.40;77.50;;;;;;4934664;29;20497;-66
2022/03/20 04:32:23;;;;;;;19.38;9.05;;;4.40;77.40;;;;;;4935142;29;20066;-66
2022/03/20 04:34:49;;;;;;;13.30;9.15;;;4.30;77.30;;;;;;4905875;29;20079;-66
2022/03/20 04:37:16;;;;;;;15.57;9.40;;;4.30;77.30;;;;;;4916821;29;20044;-66
2022/03/20 04:39:43;;;;;;;14.40;9.05;;;4.30;77.20;;;;;;4927971;29;20044;-66
2022/03/20 04:42:09;;;;;;;18.65;9.35;;;4.20;77.10;;;;;;4934190;29;20525;-66
2022/03/20 04:44:39;;;;;;;15.73;8.95;;;4.20;77.20;;;;;;4929561;29;20039;-65
2022/03/20 04:58:28;;;;;;;17.13;9.30;;;4.20;77.10;;;;;;4922116;29;20417;-65
2022/03/20 05:00:51;;;;;;;15.32;9.35;;;4.20;76.90;;;;;;4933549;29;20047;-66
2022/03/20 05:03:17;;;;;;;18.52;9.75;;;4.20;76.70;;;;;;4934785;29;20043;-66
2022/03/20 05:05:43;;;;;;;15.52;10.27;;;4.20;76.60;;;;;;4933706;29;20501;-65
2022/03/20 05:08:09;;;;;;;17.17;11.02;;;4.20;76.60;;;;;;4920615;29;20103;-65
2022/03/20 05:13:22;;;;;;;18.73;9.23;;;4.20;76.40;;;;;;4915625;29;20044;-65
2022/03/20 05:15:48;;;;;;;19.55;10.50;;;4.20;76.40;;;;;;4897916;29;20051;-65
2022/03/20 05:18:14;;;;;;;17.48;10.57;;;4.20;76.40;;;;;;4929341;29;20048;-65
2022/03/20 05:20:40;;;;;;;16.60;9.93;;;4.20;76.20;;;;;;4934111;29;20059;-66
2022/03/20 05:23:06;;;;;;;19.83;9.35;;;4.20;76.10;;;;;;4934752;29;20132;-65
2022/03/20 05:25:31;;;;;;;18.65;11.10;;;4.20;76.10;;;;;;4920642;29;20135;-65
2022/03/20 05:27:58;;;;;;;16.77;10.13;;;4.20;76.00;;;;;;4915376;29;20111;-65
2022/03/20 05:30:24;;;;;;;18.08;10.10;;;4.10;75.90;;;;;;4925317;29;20079;-65
2022/03/20 05:32:50;;;;;;;19.00;10.38;;;4.10;75.80;;;;;;4934572;29;20067;-65
2022/03/20 05:35:16;;;;;;;14.80;8.82;;;4.10;75.80;;;;;;4932708;29;20543;-65
2022/03/20 05:37:43;;;;;;;16.35;11.05;;;4.10;75.80;;;;;;4923983;29;20467;-64
2022/03/20 05:40:09;;;;;;;15.45;9.80;;;4.10;75.80;;;;;;4915282;29;20048;-65
2022/03/20 05:42:38;;;;;;;22.33;10.10;;;4.10;75.70;;;;;;4925423;29;20461;-65
2022/03/20 05:45:05;;;;;;;20.27;11.52;;;4.10;75.60;;;;;;4933403;29;20523;-65
2022/03/20 05:47:34;;;;;;;19.05;11.68;;;4.10;75.50;;;;;;4917744;29;20131;-65
2022/03/20 05:50:01;;;;;;;24.13;11.13;;;4.00;75.50;;;;;;4882349;29;20048;-65
2022/03/20 05:52:31;;;;;;;18.00;10.85;;;4.10;75.60;;;;;;4914916;29;20052;-65
2022/03/20 05:54:59;;;;;;;17.77;10.70;;;4.00;75.50;;;;;;4917718;29;20047;-65
2022/03/20 06:00:16;;;;;;;15.13;10.13;;;4.00;75.50;;;;;;4928367;29;20044;-65
2022/03/20 06:02:47;;;;;;;16.75;11.05;;;4.00;75.50;;;;;;4925263;29;20094;-68
2022/03/20 06:05:13;;;;;;;17.42;11.25;;;4.00;75.50;;;;;;4928711;29;20044;-65
2022/03/20 06:07:41;;;;;;;17.00;10.55;;;4.00;75.30;;;;;;4915025;29;20437;-66
2022/03/20 06:10:11;;;;;;;17.40;10.63;;;4.00;75.40;;;;;;4914326;29;20095;-65
2022/03/20 06:12:37;;;;;;;21.58;11.88;;;4.00;75.40;;;;;;4919307;29;20086;-64
2022/03/20 06:15:04;;;;;;;19.90;10.95;;;4.00;75.40;;;;;;4932663;29;20489;-66
2022/03/20 06:17:29;;;;;;;19.02;11.07;;;4.10;75.40;;;;;;4916202;29;20485;-65
2022/03/20 06:19:55;;;;;;;18.33;11.15;;;4.10;75.40;;;;;;4914940;29;20058;-65
2022/03/20 06:22:21;;;;;;;25.02;10.95;;;4.00;75.30;;;;;;4927310;29;20047;-65
2022/03/20 06:24:47;;;;;;;18.63;11.32;;;4.10;75.30;;;;;;4915968;29;20196;-66
2022/03/20 06:27:12;;;;;;;18.35;10.25;;;4.10;75.30;;;;;;4916987;29;20048;-65
2022/03/20 06:29:38;;;;;;;27.17;10.93;;;4.10;75.40;;;;;;4925403;29;20637;-63
2022/03/20 06:32:04;;;;;;;17.50;11.40;;;4.10;75.30;;;;;;4923689;29;20051;-64
2022/03/20 06:34:29;;;;;;;18.23;10.70;;;4.10;75.20;;;;;;4925057;29;20065;-64
2022/03/20 06:36:57;;;;;;;19.42;11.52;;;4.10;75.20;;;;;;4916355;29;20043;-64
2022/03/20 06:39:24;;;;;;;22.08;12.13;;;4.10;75.00;;;;;;4931216;29;20162;-64
2022/03/20 06:41:50;;;;;;;24.83;11.75;;;4.10;74.90;;;;;;4927641;29;20051;-64
2022/03/20 06:44:16;;;;;;;21.02;12.35;;;4.10;74.90;;;;;;4938309;29;20040;-64
2022/03/20 06:46:42;;;;;;;19.75;11.02;;;4.10;74.70;;;;;;4914629;29;20051;-64
2022/03/20 06:49:09;;;;;;;18.73;12.27;;;4.10;74.70;;;;;;4931493;29;20421;-65
2022/03/20 06:51:34;;;;;;;22.55;11.88;;;4.20;74.40;;;;;;4932714;28;20059;-65
2022/03/20 06:54:00;;;;;;;20.02;11.85;;;4.20;74.40;;;;;;4932544;29;20059;-66
2022/03/20 06:56:28;;;;;;;18.55;10.98;;;4.20;74.30;;;;;;4931524;29;20167;-64
2022/03/20 06:58:54;;;;;;;26.20;12.35;;;4.20;74.20;;;;;;4932955;29;20504;-65
2022/03/20 07:01:20;;;;;;;18.92;11.55;;;4.20;74.10;;;;;;4915311;29;20090;-65
2022/03/20 07:03:45;;;;;;;23.00;11.82;;;4.20;74.00;;;;;;4932512;29;20103;-65
2022/03/20 07:06:11;;;;;;;30.65;12.00;;;4.30;73.90;;;;;;4927749;29;20470;-65
2022/03/20 07:08:37;;;;;;;20.20;12.23;;;4.30;73.80;;;;;;4931715;29;20066;-65
2022/03/20 07:11:03;;;;;;;24.70;13.18;;;4.30;73.70;;;;;;4928767;29;20118;-66
2022/03/20 07:16:14;;;;;;;22.55;12.60;;;4.40;73.70;;;;;;4928606;29;20052;-66
2022/03/20 07:18:41;;;;;;;18.98;12.35;;;4.50;73.40;;;;;;4932857;29;20090;-66
2022/03/20 07:21:08;;;;;;;21.40;12.07;;;4.40;73.30;;;;;;4924637;29;20096;-65
2022/03/20 07:23:35;;;;;;;20.98;12.75;;;4.50;72.90;;;;;;4929329;29;20138;-65
2022/03/20 07:31:29;;;;;;;20.25;11.30;;;4.50;72.50;;;;;;4918283;29;20087;-66
2022/03/20 07:33:55;;;;;;;23.45;12.57;;;4.60;72.40;;;;;;4931053;29;20079;-65
2022/03/20 07:36:20;;;;;;;21.17;12.25;;;4.60;72.20;;;;;;4930311;29;20547;-65
2022/03/20 07:38:46;;;;;;;21.27;12.95;;;4.70;72.20;;;;;;4915800;29;20035;-65
2022/03/20 07:41:12;;;;;;;23.63;13.30;;;4.80;71.70;;;;;;4929671;29;20083;-65
2022/03/20 07:43:37;;;;;;;20.65;12.73;;;4.80;71.60;;;;;;4932146;29;20488;-64
2022/03/20 07:46:04;;;;;;;17.52;12.32;;;4.90;71.10;;;;;;4913546;29;20048;-65
2022/03/20 07:48:29;;;;;;;24.08;13.93;;;4.90;71.00;;;;;;4930302;29;20126;-66
2022/03/20 07:50:55;;;;;;;27.13;13.23;;;5.00;71.10;;;;;;4936466;29;20584;-65
2022/03/20 07:53:20;;;;;;;23.20;14.27;;;5.10;70.90;;;;;;4902698;29;20064;-65
2022/03/20 07:55:47;;;;;;;23.83;12.90;;;5.10;70.80;;;;;;4885337;29;20048;-66
2022/03/20 07:58:17;;;;;;;20.63;13.73;;;5.20;70.50;;;;;;4930597;29;20062;-66
2022/03/20 08:00:42;;;;;;;20.95;12.52;;;5.20;70.10;;;;;;4919177;29;20044;-66
2022/03/20 08:03:08;;;;;;;19.75;13.18;;;5.20;70.10;;;;;;4917671;29;20659;-66
2022/03/20 08:05:33;;;;;;;21.30;13.35;;;5.30;69.70;;;;;;4919943;29;20088;-66
2022/03/20 08:08:02;;;;;;;21.27;13.25;;;5.30;69.10;;;;;;4918015;29;20055;-65
2022/03/20 08:10:28;;;;;;;20.10;11.95;;;5.40;68.90;;;;;;4932333;29;20402;-65
2022/03/20 08:12:54;;;;;;;22.08;12.68;;;5.40;68.70;;;;;;4936140;29;20430;-66
2022/03/20 08:15:19;;;;;;;22.17;14.13;;;5.40;68.70;;;;;;4935545;29;20051;-63
2022/03/20 08:17:47;;;;;;;20.77;13.32;;;5.50;68.50;;;;;;4918512;29;20035;-65
2022/03/20 08:20:14;;;;;;;19.65;12.50;;;5.60;68.60;;;;;;4918046;29;20052;-65
2022/03/20 08:22:40;;;;;;;27.35;13.13;;;5.60;67.80;;;;;;4935779;29;20096;-66
2022/03/20 08:25:07;;;;;;;19.05;13.43;;;5.80;68.10;;;;;;4935440;29;20106;-66
2022/03/20 08:27:46;;;;;;;22.08;13.88;;;5.80;67.40;;;;;;4934944;29;20146;-65
2022/03/20 08:30:15;;;;;;;24.42;13.63;;;5.80;67.50;;;;;;4934584;29;20140;-64
2022/03/20 08:32:42;;;;;;;22.45;13.32;;;5.90;67.50;;;;;;4918717;29;20059;-66
2022/03/20 08:35:08;;;;;;;22.10;14.27;;;5.90;67.10;;;;;;4935833;29;20493;-64
2022/03/20 08:37:35;;;;;;;23.27;13.80;;;6.00;67.00;;;;;;4930747;29;20722;-65
2022/03/20 08:40:03;;;;;;;27.65;15.82;;;6.00;66.50;;;;;;4916599;29;20521;-65
2022/03/20 08:42:28;;;;;;;22.92;14.07;;;6.10;66.80;;;;;;4908397;29;20044;-65
2022/03/20 08:44:54;;;;;;;25.38;15.77;;;6.20;66.40;;;;;;4934959;29;20083;-65
2022/03/20 08:47:19;;;;;;;21.45;13.68;;;6.20;65.40;;;;;;4934150;29;20076;-65
2022/03/20 08:49:45;;;;;;;26.15;15.27;;;6.20;66.10;;;;;;4933958;29;20040;-65
2022/03/20 08:52:11;;;;;;;23.48;13.60;;;6.20;65.90;;;;;;4897887;29;20056;-65
2022/03/20 08:54:37;;;;;;;23.42;14.93;;;6.30;65.70;;;;;;4914572;29;20067;-65
2022/03/20 08:57:05;;;;;;;23.83;14.88;;;6.30;64.60;;;;;;4915190;29;20047;-65
2022/03/20 08:59:31;;;;;;;24.30;14.40;;;6.40;64.90;;;;;;4914913;29;20060;-66
2022/03/20 09:01:57;;;;;;;27.98;14.80;;;6.50;65.00;;;;;;4915900;29;20047;-65
2022/03/20 09:04:23;;;;;;;20.98;14.40;;;6.50;64.50;;;;;;4915392;29;20048;-63
2022/03/20 09:06:50;;;;;;;20.73;14.10;;;6.60;64.60;;;;;;4915609;29;20048;-65
2022/03/20 09:09:15;;;;;;;23.17;14.07;;;6.60;64.20;;;;;;4915587;29;20590;-64
2022/03/20 09:11:42;;;;;;;27.30;14.77;;;6.60;63.80;;;;;;4915248;29;20044;-64
2022/03/20 09:14:08;;;;;;;24.48;16.40;;;6.60;63.80;;;;;;4915413;29;20139;-62
2022/03/20 09:19:18;;;;;;;21.90;14.15;;;6.70;63.30;;;;;;4915403;29;20052;-64
2022/03/20 09:21:44;;;;;;;21.38;14.38;;;6.80;63.30;;;;;;4915196;29;20149;-64
2022/03/20 09:24:11;;;;;;;24.75;15.35;;;6.90;63.00;;;;;;4903689;29;20045;-64
2022/03/20 09:26:37;;;;;;;32.15;14.23;;;6.90;63.40;;;;;;4897302;29;20052;-63
2022/03/20 09:29:04;;;;;;;24.55;14.52;;;7.10;63.30;;;;;;4896147;29;20052;-64
2022/03/20 09:31:31;;;;;;;23.10;15.05;;;7.10;62.20;;;;;;4910815;29;20048;-65
2022/03/20 09:33:57;;;;;;;23.75;14.30;;;7.10;61.00;;;;;;4915444;29;20060;-65
2022/03/20 09:36:23;;;;;;;32.85;15.20;;;7.10;61.80;;;;;;4911479;29;20071;-64
2022/03/20 09:38:49;;;;;;;25.38;15.85;;;7.20;62.20;;;;;;4911478;29;20040;-64
2022/03/20 09:41:14;;;;;;;27.27;15.10;;;7.30;62.40;;;;;;4902823;29;20053;-65
2022/03/20 09:43:42;;;;;;;27.35;15.60;;;7.30;61.50;;;;;;4896519;29;20061;-65
2022/03/20 09:46:08;;;;;;;23.50;13.98;;;7.30;61.00;;;;;;4897598;29;20123;-64
2022/03/20 09:48:34;;;;;;;27.05;16.58;;;7.40;61.00;;;;;;4912849;29;20123;-66
2022/03/20 09:51:03;;;;;;;27.75;16.45;;;7.50;61.30;;;;;;4919821;29;20051;-65
2022/03/20 09:53:29;;;;;;;24.55;16.08;;;7.50;61.10;;;;;;4937538;29;20138;-65
2022/03/20 09:55:55;;;;;;;28.13;16.52;;;7.70;60.10;;;;;;4932696;29;20048;-64
2022/03/20 09:58:27;;;;;;;24.98;15.70;;;7.60;59.60;;;;;;4915634;29;20127;-66
2022/03/20 10:00:53;;;;;;;25.77;14.70;;;7.70;59.40;;;;;;4932318;29;20408;-63
2022/03/20 10:03:21;;;;;;;30.67;17.20;;;7.80;58.20;;;;;;4899920;29;20347;-64
2022/03/20 10:06:06;;;;;;;26.38;16.40;;;7.80;58.40;;;;;;4932815;29;20052;-65
2022/03/20 10:08:32;;;;;;;26.52;15.70;;;7.90;57.80;;;;;;4933171;29;20051;-64
2022/03/20 10:11:17;;;;;;;24.35;15.70;;;7.90;57.90;;;;;;4935989;29;20039;-65
2022/03/20 10:14:17;;;;;;;24.80;16.20;;;8.00;58.00;;;;;;4929555;29;20043;-64
2022/03/20 10:16:48;;;;;;;26.75;16.85;;;8.10;57.20;;;;;;4933668;29;20130;-66
2022/03/20 10:19:23;;;;;;;25.88;15.52;;;8.10;57.70;;;;;;4932564;29;20107;-64
2022/03/20 10:22:11;;;;;;;26.30;15.90;;;8.20;57.40;;;;;;4932530;29;20230;-65
2022/03/20 10:24:39;;;;;;;28.95;16.45;;;8.20;56.90;;;;;;4932514;29;20044;-65
2022/03/20 10:27:04;;;;;;;25.85;15.98;;;8.20;57.40;;;;;;4932144;29;20555;-65
2022/03/20 10:29:35;;;;;;;25.75;15.30;;;8.30;56.50;;;;;;4932139;29;20075;-65
2022/03/20 10:32:10;;;;;;;26.63;15.70;;;8.40;56.80;;;;;;4932030;29;20051;-65
2022/03/20 10:34:51;;;;;;;22.88;15.50;;;8.40;56.30;;;;;;4932291;29;20055;-65
2022/03/20 10:37:18;;;;;;;22.98;15.43;;;8.40;55.90;;;;;;4932129;29;20079;-65
2022/03/20 10:39:45;;;;;;;24.45;16.48;;;8.50;55.00;;;;;;4898902;29;20047;-65
2022/03/20 10:42:15;;;;;;;24.48;16.00;;;8.50;55.70;;;;;;4931694;29;20407;-67
2022/03/20 10:44:41;;;;;;;25.45;16.13;;;8.60;55.20;;;;;;4929025;29;20039;-66
2022/03/20 10:47:12;;;;;;;29.27;16.40;;;8.60;54.20;;;;;;4931629;29;20043;-65
2022/03/20 10:49:39;;;;;;;25.77;16.52;;;8.70;55.00;;;;;;4931565;29;21415;-65
2022/03/20 10:52:08;;;;;;;25.45;16.13;;;8.80;55.40;;;;;;4932338;29;20056;-65
2022/03/20 10:54:50;;;;;;;24.73;16.77;;;8.90;55.50;;;;;;4931330;29;20075;-66
2022/03/20 10:57:16;;;;;;;;;;;9.00;55.00;;;;;;4916002;29;20048;-65
2022/03/20 10:59:42;;;;;;;34.65;17.65;;;9.00;54.80;;;;;;4932036;29;19922;-68
2022/03/20 11:02:23;;;;;;;24.70;16.58;;;9.10;54.10;;;;;;4912851;29;20401;-64
2022/03/20 11:04:49;;;;;;;28.23;17.70;;;9.10;54.50;;;;;;4930858;29;20048;-66
2022/03/20 11:07:20;;;;;;;26.65;16.65;;;9.20;55.30;;;;;;4931422;29;20043;-65
2022/03/20 11:09:47;;;;;;;31.35;17.67;;;9.30;55.30;;;;;;4928005;29;20052;-65
2022/03/20 11:12:18;;;;;;;26.15;17.00;;;9.40;55.40;;;;;;4930558;29;20036;-66
2022/03/20 11:14:45;;;;;;;25.47;16.63;;;9.40;55.40;;;;;;4928901;29;20043;-65
2022/03/20 11:17:14;;;;;;;25.75;18.75;;;9.50;55.10;;;;;;4929142;29;20127;-66
2022/03/20 11:19:46;;;;;;;28.08;18.02;;;9.60;54.80;;;;;;4929986;29;20043;-66
2022/03/20 11:22:14;;;;;;;29.15;17.88;;;9.70;54.80;;;;;;4914155;29;20126;-66
2022/03/20 11:24:42;;;;;;;29.50;17.92;;;9.70;54.20;;;;;;4928483;29;20044;-65
2022/03/20 11:27:11;;;;;;;25.50;16.63;;;9.80;53.80;;;;;;4930645;29;20075;-67
2022/03/20 11:29:50;;;;;;;32.97;17.95;;;9.90;53.70;;;;;;4931854;29;20054;-65
2022/03/20 11:32:18;;;;;;;23.98;16.05;;;10.00;53.10;;;;;;4931626;29;20048;-65
2022/03/20 11:34:48;;;;;;;29.55;18.98;;;10.00;53.30;;;;;;4925994;29;20046;-67
2022/03/20 11:37:16;;;;;;;26.90;17.52;;;10.00;52.80;;;;;;4931035;29;20058;-64
2022/03/20 11:40:13;;;;;;;27.33;17.95;;;10.10;52.40;;;;;;4925741;29;20075;-64
2022/03/20 11:42:40;;;;;;;28.50;17.90;;;10.10;52.00;;;;;;4920530;29;20120;-65
2022/03/20 11:45:06;;;;;;;25.50;17.55;;;10.10;52.00;;;;;;4921827;29;20063;-65
2022/03/20 11:47:33;;;;;;;28.70;18.65;;;10.10;50.80;;;;;;4925918;29;20505;-65
2022/03/20 11:50:19;;;;;;;30.83;18.48;;;10.20;49.50;;;;;;4913805;29;20052;-65
2022/03/20 11:52:58;;;;;;;28.17;19.02;;;10.20;50.10;;;;;;4922295;29;20055;-65
2022/03/20 11:55:31;;;;;;;35.78;18.98;;;10.30;51.10;;;;;;4928192;29;20070;-65
2022/03/20 11:58:01;;;;;;;26.08;17.17;;;10.40;51.20;;;;;;4929184;29;20048;-64
2022/03/20 12:00:29;;;;;;;28.08;17.55;;;10.50;51.00;;;;;;4928175;29;20525;-64
2022/03/20 12:03:10;;;;;;;33.03;19.55;;;10.50;50.50;;;;;;4929774;29;20044;-65
2022/03/20 12:05:57;;;;;;;27.77;18.60;;;10.60;49.90;;;;;;4927530;29;20501;-65
2022/03/20 12:08:44;;;;;;;30.52;19.60;;;10.60;49.60;;;;;;4927178;29;20044;-65
2022/03/20 12:11:29;;;;;;;36.10;20.10;;;10.60;49.90;;;;;;4927006;29;20129;-64
2022/03/20 12:14:13;;;;;;;31.38;18.45;;;10.70;50.70;;;;;;4931255;29;20063;-63
2022/03/20 12:16:42;;;;;;;28.75;18.02;;;10.80;50.10;;;;;;4913724;29;20497;-63
2022/03/20 12:19:09;;;;;;;29.40;18.65;;;10.90;49.30;;;;;;4922117;29;20058;-63
2022/03/20 12:22:10;;;;;;;28.98;18.38;;;10.90;49.40;;;;;;4917985;29;20076;-63
2022/03/20 12:24:36;;;;;;;29.45;19.27;;;11.00;49.00;;;;;;4899722;29;20064;-63
2022/03/20 12:27:20;;;;;;;26.67;18.05;;;11.00;48.80;;;;;;4917378;29;20884;-63
2022/03/20 12:29:46;;;;;;;30.60;18.25;;;11.00;48.40;;;;;;4912792;29;20099;-65
2022/03/20 12:32:12;;;;;;;33.33;20.20;;;11.10;49.10;;;;;;4918789;29;20143;-64
2022/03/20 12:35:04;;;;;;;25.48;18.65;;;11.10;49.20;;;;;;4930039;29;20122;-64
2022/03/20 12:37:29;;;;;;;29.40;19.03;;;11.20;49.00;;;;;;4914177;29;20528;-65
2022/03/20 12:40:06;;;;;;;28.50;18.65;;;11.20;49.00;;;;;;4920121;29;20044;-65
2022/03/20 12:42:34;;;;;;;31.23;19.42;;;11.30;48.60;;;;;;4926695;29;20056;-65
2022/03/20 12:45:03;;;;;;;28.55;19.50;;;11.50;48.80;;;;;;4926333;29;20054;-64
2022/03/20 12:47:29;;;;;;;29.08;18.50;;;11.60;48.70;;;;;;4931020;29;20433;-65
2022/03/20 12:49:55;;;;;;;30.42;19.05;;;11.60;48.30;;;;;;4923266;29;20036;-65
2022/03/20 12:52:23;;;;;;;26.23;19.10;;;11.70;48.30;;;;;;4932722;29;20535;-65
2022/03/20 12:55:13;;;;;;;30.40;19.10;;;11.80;48.00;;;;;;4921427;29;20053;-65
2022/03/20 12:57:40;;;;;;;25.50;18.75;;;11.80;47.70;;;;;;4925603;29;20987;-65
2022/03/20 13:00:13;;;;;;;32.08;19.17;;;11.90;48.30;;;;;;4932155;29;20083;-66
2022/03/20 13:03:06;;;;;;;30.35;19.63;;;12.00;48.10;;;;;;4925020;29;20115;-65
2022/03/20 13:05:38;;;;;;;33.15;19.08;;;12.10;47.50;;;;;;4928238;29;20425;-65
2022/03/20 13:08:08;;;;;;;29.55;18.75;;;12.10;47.60;;;;;;4944498;29;20039;-66
2022/03/20 13:10:39;;;;;;;32.95;20.60;;;12.30;47.10;;;;;;4923554;29;20040;-66
2022/03/20 13:13:06;;;;;;;;;;;12.20;46.80;;;;;;4924236;29;20043;-66
2022/03/20 13:15:39;;;;;;;27.42;18.95;;;12.20;46.60;;;;;;4933891;29;19923;-66